Terminal Aerodrome Forecast
Issued by NWS

Home | Current Version | Previous Version | Text Only | Print | Product List | Glossary On
Versions: 1 2 3 4 5 6 7 8 9 10 11 12 13 14 15 16
511
FTUS46 KLOX 261420 AAA
TAFPRB
TAF AMD
KPRB 261420Z 2614/2712 36006KT P6SM VCSH SCT025 OVC035
     FM261900 22008KT P6SM BKN050 BKN120
     FM270300 30008KT P6SM BKN050=

USA.gov is the U.S. government's official web portal to all federal, state and local government web resources and services.